Time;durP1;ratioP1;P1;durP2;ratioP2;P2;SDS_P1;SDS_P2;PMS_P1;PMS_P2;Temp;Humidity;BMP_temperature;BMP_pressure;BME280_temperature;BME280_humidity;BME280_pressure;Samples;Min_cycle;Max_cycle;Signal;HPM_P1;HPM_P2
2023/12/03 00:00:29;;;;;;;3.60;3.30;;;12.90;86.20;;;;;;4930800;29;20191;-88
2023/12/03 00:02:59;;;;;;;8.87;4.40;;;12.90;86.00;;;;;;4930823;29;20203;-88
2023/12/03 00:05:28;;;;;;;5.93;3.57;;;12.90;85.90;;;;;;4928357;29;20203;-89
2023/12/03 00:07:57;;;;;;;16.57;3.10;;;13.00;86.00;;;;;;4928079;29;20195;-86
2023/12/03 00:10:25;;;;;;;6.13;3.77;;;13.00;85.90;;;;;;4924320;29;20195;-87
2023/12/03 00:12:54;;;;;;;3.33;3.03;;;13.00;85.80;;;;;;4934043;29;20195;-89
2023/12/03 00:15:23;;;;;;;8.10;4.90;;;13.00;85.60;;;;;;4933512;29;20227;-86
2023/12/03 00:17:59;;;;;;;5.07;3.37;;;13.00;85.50;;;;;;4931586;29;20206;-87
2023/12/03 00:20:28;;;;;;;4.30;2.90;;;13.00;85.30;;;;;;4934623;29;20261;-88
2023/12/03 00:22:57;;;;;;;7.23;3.27;;;13.00;85.10;;;;;;4916228;29;20199;-87
2023/12/03 00:25:27;;;;;;;6.87;3.50;;;13.00;84.90;;;;;;4938177;29;20210;-88
2023/12/03 00:27:57;;;;;;;5.77;3.17;;;13.00;84.90;;;;;;4925583;29;20575;-89
2023/12/03 00:30:27;;;;;;;3.93;2.10;;;13.00;84.70;;;;;;4930181;29;20698;-88
2023/12/03 00:32:58;;;;;;;3.20;2.90;;;13.00;84.50;;;;;;4931651;29;20195;-87
2023/12/03 00:35:28;;;;;;;10.63;3.77;;;13.00;84.20;;;;;;4939329;29;20223;-88
2023/12/03 00:38:03;;;;;;;3.93;2.53;;;13.00;83.90;;;;;;4925467;29;20200;-87
2023/12/03 00:40:33;;;;;;;4.67;2.57;;;13.00;84.10;;;;;;4931676;29;20651;-88
2023/12/03 00:43:02;;;;;;;3.80;3.13;;;13.10;84.10;;;;;;4929966;29;20334;-87
2023/12/03 00:45:33;;;;;;;1.60;1.50;;;13.10;83.70;;;;;;4928808;29;20202;-86
2023/12/03 00:48:03;;;;;;;1.37;1.27;;;13.10;83.60;;;;;;4931394;29;20413;-86
2023/12/03 00:50:33;;;;;;;3.60;2.23;;;13.10;83.40;;;;;;4935901;29;20201;-87
2023/12/03 00:53:08;;;;;;;3.33;1.97;;;13.20;83.50;;;;;;4935677;29;20282;-88
2023/12/03 00:55:37;;;;;;;6.43;2.90;;;13.20;83.40;;;;;;4934660;29;20230;-88
2023/12/03 00:58:07;;;;;;;14.53;1.83;;;13.30;83.30;;;;;;4935915;29;20206;-88
2023/12/03 01:00:36;;;;;;;4.73;2.13;;;13.30;82.70;;;;;;4933347;29;20206;-87
2023/12/03 01:03:06;;;;;;;4.13;2.30;;;13.30;82.80;;;;;;4921589;29;20199;-87
2023/12/03 01:05:36;;;;;;;1.80;1.70;;;13.30;83.50;;;;;;4919081;29;20199;-87
2023/12/03 01:08:05;;;;;;;2.33;2.10;;;13.40;82.60;;;;;;4933752;29;20195;-86
2023/12/03 01:10:38;;;;;;;1.93;1.70;;;13.40;82.50;;;;;;4938941;29;20199;-87
2023/12/03 01:13:07;;;;;;;3.03;1.97;;;13.40;82.40;;;;;;4925570;29;20210;-88
2023/12/03 01:15:36;;;;;;;4.30;2.03;;;13.50;82.20;;;;;;4929705;29;20224;-87
2023/12/03 01:18:10;;;;;;;2.90;1.57;;;13.50;82.20;;;;;;4934990;29;20203;-87
2023/12/03 01:20:40;;;;;;;1.47;1.37;;;13.60;82.00;;;;;;4942701;29;20199;-88
2023/12/03 01:23:13;;;;;;;1.27;1.17;;;13.70;81.80;;;;;;4933670;29;20199;-88
2023/12/03 01:25:43;;;;;;;1.20;0.80;;;13.70;81.60;;;;;;4933400;29;20286;-89
2023/12/03 01:28:16;;;;;;;7.43;0.97;;;13.80;81.40;;;;;;4940190;29;20647;-89
2023/12/03 01:30:45;;;;;;;1.23;0.70;;;13.80;80.80;;;;;;4933067;29;20266;-89
2023/12/03 01:33:15;;;;;;;2.33;1.93;;;13.90;81.30;;;;;;4933079;29;20576;-88
2023/12/03 01:35:44;;;;;;;0.80;0.80;;;13.90;80.50;;;;;;4929253;29;20650;-89
2023/12/03 01:38:12;;;;;;;4.97;2.60;;;14.00;80.40;;;;;;4935099;29;20191;-89
2023/12/03 01:40:52;;;;;;;2.77;1.73;;;14.10;80.50;;;;;;4935778;29;20191;-88
2023/12/03 01:43:21;;;;;;;1.53;1.30;;;14.10;80.30;;;;;;4930203;29;20210;-86
2023/12/03 01:45:52;;;;;;;1.10;1.00;;;14.10;79.90;;;;;;4932279;29;20199;-86
2023/12/03 01:48:22;;;;;;;5.57;1.23;;;14.20;79.70;;;;;;4930364;29;20230;-88
2023/12/03 01:50:51;;;;;;;10.50;2.80;;;14.20;79.90;;;;;;4930221;29;20308;-86
2023/12/03 01:53:20;;;;;;;2.30;1.47;;;14.30;80.00;;;;;;4935137;29;20204;-88
2023/12/03 01:55:49;;;;;;;1.40;0.83;;;14.30;79.50;;;;;;4935491;29;20226;-86
2023/12/03 01:58:18;;;;;;;0.50;0.50;;;14.40;80.30;;;;;;4934916;28;20260;-87
2023/12/03 02:00:47;;;;;;;2.73;1.57;;;14.40;79.50;;;;;;4929811;29;20202;-88
2023/12/03 02:03:16;;;;;;;1.37;1.27;;;14.40;78.90;;;;;;4933010;29;20211;-88
2023/12/03 02:06:03;;;;;;;7.37;1.20;;;14.50;79.30;;;;;;4931842;29;20199;-85
2023/12/03 02:08:32;;;;;;;1.93;1.00;;;14.50;79.10;;;;;;4930809;29;20200;-86
2023/12/03 02:11:02;;;;;;;1.40;1.23;;;14.60;79.30;;;;;;4934490;29;20199;-86
2023/12/03 02:13:33;;;;;;;1.10;1.03;;;14.60;79.30;;;;;;4936225;28;20644;-87
2023/12/03 02:16:03;;;;;;;0.70;0.70;;;14.70;79.60;;;;;;4928376;29;20219;-87
2023/12/03 02:18:34;;;;;;;0.93;0.40;;;14.80;79.60;;;;;;4930689;29;20558;-86
2023/12/03 02:21:07;;;;;;;2.60;1.13;;;14.80;79.70;;;;;;4929880;29;20755;-87
2023/12/03 02:23:37;;;;;;;1.33;1.23;;;14.90;79.60;;;;;;4933517;29;20238;-88
2023/12/03 02:26:07;;;;;;;2.17;1.60;;;14.90;79.60;;;;;;4931867;29;20206;-85
2023/12/03 02:28:36;;;;;;;1.63;1.17;;;15.00;80.50;;;;;;4930363;29;20217;-85
2023/12/03 02:31:06;;;;;;;1.77;1.33;;;15.00;79.40;;;;;;4938469;29;20215;-88
2023/12/03 02:33:34;;;;;;;0.40;0.40;;;15.00;79.50;;;;;;4926079;29;20223;-85
2023/12/03 02:36:05;;;;;;;1.00;0.90;;;15.10;79.60;;;;;;4929069;29;20220;-86
2023/12/03 02:38:34;;;;;;;0.93;0.70;;;15.10;79.10;;;;;;4929843;29;20207;-85
2023/12/03 02:41:11;;;;;;;0.97;0.83;;;15.10;79.20;;;;;;4929292;29;22423;-88
2023/12/03 02:43:41;;;;;;;1.13;1.03;;;15.10;79.20;;;;;;4917714;29;20203;-88
2023/12/03 02:46:10;;;;;;;1.47;0.70;;;15.20;79.30;;;;;;4931511;29;20207;-90
2023/12/03 02:48:40;;;;;;;5.53;1.77;;;15.20;79.20;;;;;;4933450;29;20191;-89
2023/12/03 02:51:10;;;;;;;1.97;0.83;;;15.20;79.30;;;;;;4917630;29;20203;-87
2023/12/03 02:53:40;;;;;;;1.03;0.83;;;15.30;79.50;;;;;;4929770;29;20199;-88
2023/12/03 02:56:09;;;;;;;0.30;0.30;;;15.30;80.40;;;;;;4934885;29;20196;-87
2023/12/03 02:58:39;;;;;;;1.80;1.70;;;15.30;79.60;;;;;;4917732;29;20283;-87
2023/12/03 03:01:09;;;;;;;0.70;0.57;;;15.40;79.70;;;;;;4930949;29;20210;-88
2023/12/03 03:03:38;;;;;;;0.90;0.90;;;15.40;79.70;;;;;;4930103;29;20200;-88
2023/12/03 03:06:08;;;;;;;0.70;0.70;;;15.40;79.50;;;;;;4932125;29;20207;-87
2023/12/03 03:08:37;;;;;;;4.03;0.97;;;15.40;79.20;;;;;;4934499;29;20202;-86
2023/12/03 03:11:07;;;;;;;1.07;0.97;;;15.50;79.10;;;;;;4932080;29;20206;-88
2023/12/03 03:13:40;;;;;;;2.40;1.33;;;15.50;78.90;;;;;;4940573;29;20669;-86
2023/12/03 03:16:10;;;;;;;0.80;0.80;;;15.50;78.80;;;;;;4917152;29;20208;-88
2023/12/03 03:18:38;;;;;;;0.70;0.63;;;15.60;78.90;;;;;;4932056;29;20250;-88
2023/12/03 03:21:09;;;;;;;0.97;0.67;;;15.60;78.90;;;;;;4931291;29;20242;-87
2023/12/03 03:23:38;;;;;;;0.97;0.93;;;15.60;79.00;;;;;;4933027;29;20600;-88
2023/12/03 03:26:07;;;;;;;2.97;1.07;;;15.60;78.90;;;;;;4933187;29;20203;-88
2023/12/03 03:28:36;;;;;;;0.80;0.80;;;15.70;79.10;;;;;;4917954;29;20207;-87
2023/12/03 03:31:09;;;;;;;3.00;1.70;;;15.80;79.10;;;;;;4937558;29;20209;-88
2023/12/03 03:33:37;;;;;;;0.77;0.77;;;15.80;79.10;;;;;;4932252;29;20268;-89
2023/12/03 03:36:09;;;;;;;7.43;0.97;;;15.80;79.20;;;;;;4930902;29;20204;-88
2023/12/03 03:38:39;;;;;;;0.57;0.57;;;15.80;79.30;;;;;;4932042;29;20592;-88
2023/12/03 03:41:08;;;;;;;1.17;1.07;;;15.80;79.20;;;;;;4921244;29;20199;-88
2023/12/03 03:43:37;;;;;;;2.23;1.03;;;15.90;79.40;;;;;;4918308;29;20668;-88
2023/12/03 03:46:06;;;;;;;1.17;0.47;;;15.90;79.30;;;;;;4925393;29;20273;-86
2023/12/03 03:48:37;;;;;;;0.50;0.40;;;15.90;79.30;;;;;;4926179;29;20208;-87
2023/12/03 03:51:07;;;;;;;0.30;0.30;;;15.90;79.40;;;;;;4930375;29;20266;-87
2023/12/03 03:53:36;;;;;;;0.83;0.80;;;15.90;79.40;;;;;;4927848;29;20199;-88
2023/12/03 03:56:09;;;;;;;0.83;0.73;;;15.90;79.40;;;;;;4917308;29;20691;-88
2023/12/03 03:58:41;;;;;;;0.50;0.50;;;15.80;79.40;;;;;;4928353;29;20600;-86
2023/12/03 04:01:11;;;;;;;0.40;0.40;;;15.90;79.50;;;;;;4931285;29;20206;-85
2023/12/03 04:03:41;;;;;;;0.60;0.60;;;15.80;79.50;;;;;;4931847;29;20207;-88
2023/12/03 04:06:11;;;;;;;0.80;0.80;;;15.80;79.50;;;;;;4931008;29;20199;-87
2023/12/03 04:08:40;;;;;;;1.10;0.83;;;15.80;79.60;;;;;;4933742;29;20290;-87
2023/12/03 04:11:09;;;;;;;0.33;0.33;;;15.90;79.70;;;;;;4931735;29;20688;-89
2023/12/03 04:13:38;;;;;;;0.30;0.30;;;15.90;79.70;;;;;;4930169;29;20195;-87
2023/12/03 04:16:09;;;;;;;0.53;0.53;;;15.90;79.70;;;;;;4932012;29;20686;-88
2023/12/03 04:18:40;;;;;;;0.30;0.30;;;15.90;79.70;;;;;;4929062;29;20235;-88
2023/12/03 04:21:15;;;;;;;3.73;0.73;;;15.90;79.70;;;;;;4934803;29;20530;-88
2023/12/03 04:23:44;;;;;;;0.50;0.50;;;15.90;79.60;;;;;;4931789;29;20237;-87
2023/12/03 04:26:14;;;;;;;0.50;0.50;;;15.90;79.50;;;;;;4933319;29;20199;-87
2023/12/03 04:28:43;;;;;;;0.63;0.60;;;15.80;79.40;;;;;;4930140;29;20210;-87
2023/12/03 04:31:21;;;;;;;21.03;1.33;;;15.80;78.70;;;;;;4942390;29;20199;-88
2023/12/03 04:33:53;;;;;;;0.87;0.73;;;15.80;78.20;;;;;;4934056;29;20278;-87
2023/12/03 04:36:25;;;;;;;0.63;0.63;;;15.80;77.70;;;;;;4935450;29;20519;-86
2023/12/03 04:38:56;;;;;;;0.37;0.37;;;15.80;77.90;;;;;;4943795;29;20234;-88
2023/12/03 04:41:25;;;;;;;1.10;0.47;;;15.80;78.00;;;;;;4935597;29;20207;-88
2023/12/03 04:43:55;;;;;;;1.67;0.90;;;15.80;78.00;;;;;;4934728;29;20198;-88
2023/12/03 04:46:24;;;;;;;1.27;1.13;;;15.90;78.20;;;;;;4936211;29;20677;-88
2023/12/03 04:48:56;;;;;;;0.20;0.20;;;15.90;78.30;;;;;;4934810;29;20203;-87
2023/12/03 04:51:25;;;;;;;0.40;0.40;;;15.80;78.20;;;;;;4933750;29;20231;-88
2023/12/03 04:54:00;;;;;;;0.50;0.50;;;15.80;77.90;;;;;;4929573;29;20656;-87
2023/12/03 04:56:29;;;;;;;2.83;1.57;;;15.90;78.00;;;;;;4932434;29;20229;-87
2023/12/03 04:58:57;;;;;;;1.13;1.07;;;15.90;78.20;;;;;;4931436;29;20318;-86
2023/12/03 05:01:27;;;;;;;0.40;0.40;;;15.90;78.30;;;;;;4931648;29;20225;-87
2023/12/03 05:04:01;;;;;;;0.30;0.30;;;15.90;78.40;;;;;;4921696;29;20222;-89
2023/12/03 05:06:30;;;;;;;0.40;0.40;;;15.90;78.40;;;;;;4918384;29;20205;-88
2023/12/03 05:09:01;;;;;;;0.30;0.30;;;15.90;78.40;;;;;;4932433;29;20222;-88
2023/12/03 05:11:30;;;;;;;2.00;0.67;;;15.80;78.40;;;;;;4934835;29;20202;-88
2023/12/03 05:13:59;;;;;;;0.40;0.40;;;15.80;78.50;;;;;;4919395;29;20195;-88
2023/12/03 05:16:27;;;;;;;0.50;0.50;;;15.80;78.50;;;;;;4932036;29;20199;-89
2023/12/03 05:18:58;;;;;;;0.23;0.23;;;15.80;78.50;;;;;;4930880;29;20233;-90
2023/12/03 05:21:29;;;;;;;0.60;0.50;;;15.80;78.50;;;;;;4931740;29;20203;-89
2023/12/03 05:23:58;;;;;;;1.27;1.03;;;15.80;78.00;;;;;;4934435;29;20217;-89
2023/12/03 05:26:29;;;;;;;0.63;0.50;;;15.80;78.30;;;;;;4933645;29;20203;-89
2023/12/03 05:28:58;;;;;;;1.10;0.33;;;15.80;78.40;;;;;;4933111;29;20234;-89
2023/12/03 05:31:26;;;;;;;0.83;0.80;;;15.80;78.00;;;;;;4933186;29;20222;-89
2023/12/03 05:33:58;;;;;;;3.97;0.87;;;15.80;78.00;;;;;;4933162;29;20196;-88
2023/12/03 05:36:26;;;;;;;1.53;1.43;;;15.70;77.80;;;;;;4927323;29;20211;-86
2023/12/03 05:38:55;;;;;;;5.40;1.27;;;15.70;77.70;;;;;;4932826;29;20259;-88
2023/12/03 05:41:24;;;;;;;1.27;1.17;;;15.70;77.80;;;;;;4934661;29;20199;-88
2023/12/03 05:43:53;;;;;;;0.40;0.40;;;15.70;77.90;;;;;;4930066;29;20207;-85
2023/12/03 05:46:23;;;;;;;0.50;0.50;;;15.70;77.90;;;;;;4930444;29;20626;-87
2023/12/03 05:48:52;;;;;;;3.47;1.83;;;15.60;77.90;;;;;;4929388;29;20211;-86
2023/12/03 05:51:24;;;;;;;2.73;1.50;;;15.60;77.90;;;;;;4932775;29;20207;-86
2023/12/03 05:53:52;;;;;;;3.40;1.10;;;15.60;78.00;;;;;;4931217;29;20697;-87
2023/12/03 05:56:22;;;;;;;2.87;0.90;;;15.50;78.10;;;;;;4934439;29;20195;-85
2023/12/03 05:58:56;;;;;;;0.43;0.43;;;15.50;78.30;;;;;;4933204;29;20238;-85
2023/12/03 06:01:27;;;;;;;0.63;0.63;;;15.40;78.50;;;;;;4933091;29;21050;-87
2023/12/03 06:03:57;;;;;;;1.73;1.40;;;15.40;78.50;;;;;;4932070;29;20231;-88
2023/12/03 06:06:33;;;;;;;1.97;0.83;;;15.40;78.70;;;;;;4916678;29;20614;-87
2023/12/03 06:09:04;;;;;;;1.93;0.70;;;15.40;78.80;;;;;;4914011;29;20613;-87
2023/12/03 06:11:35;;;;;;;1.37;0.83;;;15.30;78.80;;;;;;4933578;29;20195;-85
2023/12/03 06:14:04;;;;;;;4.07;1.50;;;15.30;78.80;;;;;;4933792;29;20192;-85
2023/12/03 06:16:35;;;;;;;3.00;1.37;;;15.30;78.90;;;;;;4926275;29;20195;-85
2023/12/03 06:19:04;;;;;;;1.03;0.90;;;15.30;78.90;;;;;;4937022;29;20211;-89
2023/12/03 06:21:39;;;;;;;0.93;0.93;;;15.30;79.00;;;;;;4937226;29;20281;-86
2023/12/03 06:24:08;;;;;;;4.00;2.50;;;15.30;79.10;;;;;;4919314;29;20198;-90
2023/12/03 06:26:38;;;;;;;0.73;0.70;;;15.20;79.00;;;;;;4939554;29;20191;-89
2023/12/03 06:29:06;;;;;;;0.70;0.70;;;15.20;79.10;;;;;;4934181;29;20239;-88
2023/12/03 06:31:37;;;;;;;2.00;1.00;;;15.20;79.10;;;;;;4934045;29;20239;-87
2023/12/03 06:34:06;;;;;;;4.47;2.60;;;15.20;79.30;;;;;;4938320;29;20199;-89
2023/12/03 06:36:36;;;;;;;2.33;2.10;;;15.10;79.50;;;;;;4936461;29;20196;-87
2023/12/03 06:39:05;;;;;;;3.90;1.70;;;15.00;79.90;;;;;;4935640;29;20235;-87
2023/12/03 06:41:34;;;;;;;3.43;2.10;;;15.00;80.00;;;;;;4932936;29;20736;-85
2023/12/03 06:44:02;;;;;;;1.37;1.10;;;14.90;80.20;;;;;;4920609;29;20302;-88
2023/12/03 06:46:31;;;;;;;1.60;1.27;;;14.90;80.60;;;;;;4933706;29;20283;-88
2023/12/03 06:49:01;;;;;;;1.13;1.13;;;14.80;80.80;;;;;;4936186;29;20195;-88
2023/12/03 06:51:30;;;;;;;3.73;2.30;;;14.80;80.80;;;;;;4936220;29;20221;-88
2023/12/03 06:58:12;;;;;;;0.80;0.80;;;14.70;81.10;;;;;;4932126;29;20214;-89
2023/12/03 07:00:42;;;;;;;3.40;1.43;;;14.70;81.30;;;;;;4929805;29;20270;-88
2023/12/03 07:03:11;;;;;;;2.27;2.00;;;14.60;81.80;;;;;;4934598;29;20195;-89
2023/12/03 07:05:41;;;;;;;2.47;2.03;;;14.50;82.40;;;;;;4939688;29;20302;-87
2023/12/03 07:08:10;;;;;;;3.63;1.70;;;14.40;82.90;;;;;;4932602;29;20203;-89
2023/12/03 07:10:41;;;;;;;2.87;1.77;;;14.40;82.80;;;;;;4933843;29;20290;-88
2023/12/03 07:13:11;;;;;;;3.67;2.53;;;14.40;83.10;;;;;;4933464;29;20206;-89
2023/12/03 07:15:43;;;;;;;5.43;2.57;;;14.30;83.80;;;;;;4937999;29;20275;-87
2023/12/03 07:18:12;;;;;;;2.30;1.60;;;14.30;83.50;;;;;;4948974;29;20230;-87
2023/12/03 07:20:41;;;;;;;1.97;1.80;;;14.20;84.40;;;;;;4949144;29;21061;-88
2023/12/03 07:23:10;;;;;;;2.40;1.83;;;14.20;84.70;;;;;;4935753;29;20579;-86
2023/12/03 07:25:39;;;;;;;3.33;1.97;;;14.20;85.30;;;;;;4919546;29;20203;-86
2023/12/03 07:28:09;;;;;;;3.03;2.67;;;13.90;86.70;;;;;;4929269;29;20520;-88
2023/12/03 07:30:41;;;;;;;2.40;2.20;;;13.90;86.90;;;;;;4928185;29;20227;-90
2023/12/03 07:33:14;;;;;;;5.03;2.17;;;13.90;87.20;;;;;;4928132;29;21100;-88
2023/12/03 07:35:44;;;;;;;3.07;2.57;;;13.80;88.00;;;;;;4931555;29;20242;-89
2023/12/03 07:38:15;;;;;;;2.83;2.60;;;13.70;88.60;;;;;;4931004;29;20333;-90
2023/12/03 07:40:44;;;;;;;3.20;1.93;;;13.60;88.60;;;;;;4932755;29;20233;-89
2023/12/03 07:43:20;;;;;;;3.07;2.57;;;13.60;88.90;;;;;;4931254;29;20632;-89
2023/12/03 07:45:50;;;;;;;3.80;3.40;;;13.50;90.00;;;;;;4932562;29;20226;-88
2023/12/03 07:48:20;;;;;;;4.97;3.33;;;13.50;90.10;;;;;;4936896;29;20206;-89
2023/12/03 07:50:53;;;;;;;4.37;2.83;;;13.50;90.10;;;;;;4937270;29;20214;-88
2023/12/03 07:53:22;;;;;;;2.63;2.43;;;13.40;90.20;;;;;;4936966;29;20191;-88
2023/12/03 07:55:53;;;;;;;3.00;2.23;;;13.40;90.40;;;;;;4937597;29;20570;-87
2023/12/03 07:58:24;;;;;;;3.30;2.63;;;13.30;90.60;;;;;;4939081;29;20262;-87
2023/12/03 08:00:58;;;;;;;3.63;3.23;;;13.30;90.80;;;;;;4931894;29;20251;-88
2023/12/03 08:03:29;;;;;;;2.60;2.37;;;13.30;90.80;;;;;;4938075;29;20221;-89
2023/12/03 08:05:59;;;;;;;2.03;1.93;;;13.20;91.10;;;;;;4936593;29;20195;-90
2023/12/03 08:08:28;;;;;;;2.20;2.00;;;13.20;90.90;;;;;;4934541;29;20560;-89
2023/12/03 08:10:57;;;;;;;2.10;1.93;;;13.20;91.30;;;;;;4935160;29;20214;-89
2023/12/03 08:13:26;;;;;;;1.97;1.83;;;13.20;91.20;;;;;;4937726;29;20255;-89
2023/12/03 08:16:09;;;;;;;1.73;1.63;;;13.20;91.70;;;;;;4933307;29;20207;-88
2023/12/03 08:18:41;;;;;;;3.70;2.63;;;13.20;91.80;;;;;;4926328;29;20572;-88
2023/12/03 08:21:11;;;;;;;3.53;2.70;;;13.10;92.00;;;;;;4934399;29;20326;-89
2023/12/03 08:23:49;;;;;;;4.33;3.70;;;13.10;92.10;;;;;;4933176;29;20262;-87
2023/12/03 08:26:18;;;;;;;2.33;1.97;;;13.10;92.20;;;;;;4934466;29;20231;-87
2023/12/03 08:28:47;;;;;;;2.27;2.03;;;13.10;92.30;;;;;;4935438;29;20198;-88
2023/12/03 08:31:23;;;;;;;4.37;2.50;;;13.10;92.40;;;;;;4915782;29;20707;-90
2023/12/03 08:33:54;;;;;;;12.37;3.20;;;13.10;92.60;;;;;;4938134;29;20211;-89
2023/12/03 08:36:35;;;;;;;2.23;2.07;;;13.00;92.60;;;;;;4944174;29;20195;-89
2023/12/03 08:39:07;;;;;;;4.87;2.33;;;13.10;92.60;;;;;;4955874;29;20195;-90
2023/12/03 08:41:47;;;;;;;2.27;1.73;;;13.00;93.00;;;;;;4950401;29;20279;-90
2023/12/03 08:44:17;;;;;;;4.30;2.57;;;13.10;92.90;;;;;;4939772;29;20191;-88
2023/12/03 08:46:53;;;;;;;1.67;1.37;;;13.10;92.90;;;;;;4938272;29;20215;-89
2023/12/03 08:49:24;;;;;;;5.67;3.37;;;13.10;92.90;;;;;;4943328;29;20203;-92
2023/12/03 08:51:55;;;;;;;2.03;1.43;;;13.10;93.10;;;;;;4939290;28;20204;-88
2023/12/03 08:54:24;;;;;;;1.43;1.33;;;13.10;93.20;;;;;;4940322;29;20229;-91
2023/12/03 08:56:53;;;;;;;4.10;2.63;;;13.10;93.30;;;;;;4943020;29;20652;-89
2023/12/03 08:59:24;;;;;;;2.23;2.03;;;13.10;93.40;;;;;;4923260;29;20651;-89
2023/12/03 09:01:54;;;;;;;3.70;1.97;;;13.10;93.40;;;;;;4938116;29;20195;-91
2023/12/03 09:04:23;;;;;;;3.23;1.73;;;13.20;93.40;;;;;;4933675;29;20289;-90
2023/12/03 09:06:54;;;;;;;5.03;2.60;;;13.10;93.50;;;;;;4933665;29;20226;-87
2023/12/03 09:09:32;;;;;;;4.63;2.27;;;13.20;93.40;;;;;;4929041;29;20710;-85
2023/12/03 09:12:05;;;;;;;2.27;2.07;;;13.10;93.80;;;;;;4935037;29;20207;-87
2023/12/03 09:14:34;;;;;;;2.53;1.80;;;13.20;93.70;;;;;;4934701;29;20203;-87
2023/12/03 09:17:09;;;;;;;1.60;1.50;;;13.20;94.10;;;;;;4942191;29;20195;-89
2023/12/03 09:19:38;;;;;;;1.87;1.77;;;13.20;93.80;;;;;;4941831;29;20195;-90
2023/12/03 09:22:09;;;;;;;2.07;1.87;;;13.20;93.80;;;;;;4948258;29;20202;-90
2023/12/03 09:24:38;;;;;;;3.97;3.20;;;13.20;93.80;;;;;;4940809;29;20197;-89
2023/12/03 09:27:08;;;;;;;4.97;2.57;;;13.30;93.90;;;;;;4940815;29;20195;-87
2023/12/03 09:29:42;;;;;;;1.23;1.07;;;13.20;93.90;;;;;;4937176;29;20240;-88
2023/12/03 09:32:15;;;;;;;3.17;2.07;;;13.30;93.80;;;;;;4943641;29;20195;-87
2023/12/03 09:34:48;;;;;;;3.43;1.70;;;13.20;93.90;;;;;;4935292;29;20905;-88
2023/12/03 09:37:17;;;;;;;8.30;2.37;;;13.20;93.90;;;;;;4951181;29;20670;-86
2023/12/03 09:39:47;;;;;;;4.83;2.40;;;13.20;94.00;;;;;;4933612;29;20191;-88
2023/12/03 09:42:19;;;;;;;2.53;1.70;;;13.20;94.20;;;;;;4934708;29;20204;-87
2023/12/03 09:45:00;;;;;;;2.83;1.53;;;13.20;94.30;;;;;;4930143;29;20225;-89
2023/12/03 09:47:34;;;;;;;5.33;2.97;;;13.10;94.40;;;;;;4928956;29;20702;-86
2023/12/03 09:50:07;;;;;;;5.30;2.13;;;13.10;94.50;;;;;;4936850;29;20205;-86
2023/12/03 09:52:43;;;;;;;1.70;1.53;;;13.10;94.50;;;;;;4914165;29;20199;-88
2023/12/03 09:55:13;;;;;;;4.90;2.60;;;13.10;94.50;;;;;;4931632;29;20210;-86
2023/12/03 09:57:45;;;;;;;1.50;1.33;;;13.10;94.60;;;;;;4929145;29;20523;-85
2023/12/03 10:00:16;;;;;;;9.20;1.67;;;13.10;94.60;;;;;;4935509;29;20298;-84
2023/12/03 10:02:53;;;;;;;1.33;1.10;;;13.00;94.70;;;;;;4936992;29;20721;-87
2023/12/03 10:05:22;;;;;;;2.77;2.57;;;13.00;94.70;;;;;;4935177;29;20623;-88
2023/12/03 10:08:00;;;;;;;0.90;0.67;;;13.10;94.80;;;;;;4934007;29;20207;-90
2023/12/03 10:10:34;;;;;;;1.40;0.97;;;13.10;94.80;;;;;;4936836;29;20203;-90
2023/12/03 10:13:06;;;;;;;1.40;1.30;;;13.00;94.90;;;;;;4937098;29;20539;-85
2023/12/03 10:15:35;;;;;;;1.43;1.33;;;13.00;94.90;;;;;;4929551;29;20207;-86
2023/12/03 10:18:12;;;;;;;8.13;1.97;;;13.00;95.00;;;;;;4934935;29;20207;-85
2023/12/03 10:20:41;;;;;;;2.00;1.80;;;12.90;95.10;;;;;;4935221;29;20234;-87
2023/12/03 10:23:18;;;;;;;1.90;1.13;;;12.90;95.20;;;;;;4935625;29;20290;-87
2023/12/03 10:25:48;;;;;;;1.53;0.97;;;12.90;95.30;;;;;;4931974;29;20218;-83
2023/12/03 10:28:20;;;;;;;1.57;1.47;;;12.90;95.20;;;;;;4933115;29;20667;-87
2023/12/03 10:30:52;;;;;;;0.60;0.60;;;12.80;95.10;;;;;;4928452;29;20223;-85
2023/12/03 10:33:22;;;;;;;1.30;1.03;;;12.80;95.00;;;;;;4944799;29;20242;-89
2023/12/03 10:35:51;;;;;;;1.10;1.07;;;12.80;94.90;;;;;;4933737;29;20199;-83
2023/12/03 10:38:22;;;;;;;2.20;2.00;;;12.90;94.90;;;;;;4932252;29;20198;-83
2023/12/03 10:40:51;;;;;;;2.73;1.33;;;12.80;94.80;;;;;;4934058;29;20211;-87
2023/12/03 10:43:24;;;;;;;1.13;1.03;;;12.80;94.90;;;;;;4931493;29;20298;-88
2023/12/03 10:45:54;;;;;;;2.93;1.47;;;12.80;94.70;;;;;;4932105;29;20200;-87
2023/12/03 10:48:30;;;;;;;1.67;1.30;;;12.80;94.70;;;;;;4938415;29;20230;-87
2023/12/03 10:51:06;;;;;;;1.90;1.80;;;12.80;94.70;;;;;;4931662;29;20226;-86
2023/12/03 10:53:38;;;;;;;2.10;1.47;;;12.70;94.70;;;;;;4926831;29;20569;-86
2023/12/03 10:56:10;;;;;;;1.20;1.03;;;12.70;94.70;;;;;;4928022;28;20201;-87
2023/12/03 10:58:41;;;;;;;1.20;1.10;;;12.70;94.50;;;;;;4933638;29;20202;-86
2023/12/03 11:01:19;;;;;;;1.63;1.37;;;12.70;94.40;;;;;;4928479;29;20242;-84
2023/12/03 11:03:59;;;;;;;1.37;0.87;;;12.60;94.40;;;;;;4929903;29;20671;-88
2023/12/03 11:06:32;;;;;;;1.30;1.20;;;12.60;94.00;;;;;;4928427;29;20393;-86
2023/12/03 11:09:03;;;;;;;0.97;0.97;;;12.60;94.00;;;;;;4928953;29;20199;-87
2023/12/03 11:11:36;;;;;;;0.50;0.50;;;12.60;94.00;;;;;;4930812;29;20226;-84
2023/12/03 11:14:06;;;;;;;1.80;1.20;;;12.50;93.90;;;;;;4930107;29;20199;-89
2023/12/03 11:16:45;;;;;;;2.00;0.97;;;12.50;93.90;;;;;;4934662;29;20274;-86
2023/12/03 11:19:20;;;;;;;0.87;0.87;;;12.60;93.90;;;;;;4931105;29;20199;-86
2023/12/03 11:22:06;;;;;;;1.40;1.30;;;12.50;94.10;;;;;;4934844;29;20218;-86
2023/12/03 11:24:50;;;;;;;0.80;0.80;;;12.60;94.10;;;;;;4931687;28;20198;-86
2023/12/03 11:27:25;;;;;;;1.17;1.07;;;12.50;94.10;;;;;;4935795;29;20196;-86
2023/12/03 11:29:55;;;;;;;0.70;0.70;;;12.50;93.70;;;;;;4945215;29;20288;-85
2023/12/03 11:32:27;;;;;;;2.07;1.27;;;12.30;93.00;;;;;;4941983;28;20213;-86
2023/12/03 11:35:13;;;;;;;0.97;0.93;;;12.40;93.00;;;;;;4926594;29;20206;-87
2023/12/03 11:37:47;;;;;;;0.53;0.53;;;12.30;93.10;;;;;;4929038;29;20751;-85
2023/12/03 11:40:33;;;;;;;2.73;0.50;;;12.30;93.70;;;;;;4936416;29;20203;-89
2023/12/03 11:43:30;;;;;;;1.60;1.50;;;12.20;93.60;;;;;;4936964;29;20698;-89
2023/12/03 11:46:01;;;;;;;1.70;1.10;;;12.20;93.70;;;;;;4950677;29;20199;-90
2023/12/03 11:48:34;;;;;;;4.27;1.60;;;12.10;93.60;;;;;;4946518;29;20254;-87
2023/12/03 11:51:17;;;;;;;0.53;0.53;;;12.00;93.60;;;;;;4927671;29;20195;-88
2023/12/03 11:54:01;;;;;;;1.47;1.37;;;11.90;93.60;;;;;;4939938;29;20206;-91
2023/12/03 11:56:38;;;;;;;2.37;1.67;;;11.90;93.70;;;;;;4931429;29;20652;-88
2023/12/03 11:59:20;;;;;;;4.03;1.37;;;11.90;93.70;;;;;;4939718;29;20195;-90
2023/12/03 12:02:02;;;;;;;2.83;2.60;;;11.90;93.70;;;;;;4934324;29;20215;-91
2023/12/03 12:04:31;;;;;;;2.20;2.00;;;11.80;93.70;;;;;;4951232;28;20594;-87
2023/12/03 12:07:16;;;;;;;5.43;2.87;;;11.70;93.60;;;;;;4935114;29;20203;-83
2023/12/03 12:09:47;;;;;;;5.53;2.27;;;11.60;93.70;;;;;;4934715;29;20183;-84
2023/12/03 12:12:16;;;;;;;2.87;1.03;;;11.50;93.80;;;;;;4934973;29;20206;-86
2023/12/03 12:14:51;;;;;;;1.83;1.50;;;11.40;93.80;;;;;;4934348;29;20274;-87
2023/12/03 12:17:21;;;;;;;1.77;1.50;;;11.30;93.90;;;;;;4933982;29;20491;-84
2023/12/03 12:19:55;;;;;;;3.00;2.27;;;11.30;94.00;;;;;;4933203;29;20612;-84
2023/12/03 12:22:50;;;;;;;2.33;1.60;;;11.20;94.10;;;;;;4933269;29;20218;-84
2023/12/03 12:25:19;;;;;;;1.60;1.17;;;11.20;94.10;;;;;;4933219;29;20202;-86
2023/12/03 12:27:49;;;;;;;1.33;1.23;;;11.20;93.80;;;;;;4932355;29;20655;-83
2023/12/03 12:30:32;;;;;;;1.55;1.35;;;11.10;93.80;;;;;;4933750;29;20509;-89
2023/12/03 12:33:04;;;;;;;2.30;1.77;;;11.00;93.60;;;;;;4926350;29;20195;-87
2023/12/03 12:35:36;;;;;;;1.53;1.43;;;11.00;93.20;;;;;;4935653;29;20198;-86
2023/12/03 12:38:10;;;;;;;1.97;1.43;;;10.90;93.30;;;;;;4907975;29;20202;-86
2023/12/03 12:40:53;;;;;;;1.77;1.37;;;10.90;93.00;;;;;;4918807;29;20183;-86
2023/12/03 12:43:22;;;;;;;2.10;1.80;;;10.80;92.90;;;;;;4936809;29;20237;-89
2023/12/03 12:45:52;;;;;;;1.23;0.83;;;10.80;93.00;;;;;;4952596;29;20203;-86
2023/12/03 12:48:29;;;;;;;1.90;1.70;;;10.70;92.80;;;;;;4938583;29;20605;-88
2023/12/03 12:50:59;;;;;;;2.50;1.23;;;10.60;92.80;;;;;;4946724;29;20214;-88
2023/12/03 12:53:52;;;;;;;1.83;1.67;;;10.60;92.80;;;;;;4939758;29;20203;-87
2023/12/03 12:56:21;;;;;;;1.47;1.37;;;10.60;92.70;;;;;;4923334;29;20196;-90
2023/12/03 12:58:51;;;;;;;4.50;2.20;;;10.50;93.10;;;;;;4951852;29;20195;-93
2023/12/03 13:01:19;;;;;;;4.90;2.27;;;10.40;92.70;;;;;;4940981;29;20206;-92
2023/12/03 13:03:50;;;;;;;4.83;3.53;;;10.40;92.80;;;;;;4951564;29;20230;-90
2023/12/03 13:06:21;;;;;;;2.80;2.37;;;10.20;93.00;;;;;;4950507;29;20183;-90
2023/12/03 13:08:52;;;;;;;1.70;1.60;;;10.20;92.60;;;;;;4945179;28;20195;-92
2023/12/03 13:11:26;;;;;;;1.30;0.90;;;10.20;92.40;;;;;;4941409;29;20198;-93